createdAt,value
2023-05-19T00:04:17.295Z,97.15
2023-05-19T00:09:19.636Z,97.43
2023-05-19T00:14:22.014Z,97.49
2023-05-19T00:19:25.570Z,97.32
2023-05-19T00:24:27.899Z,97.50
2023-05-19T00:29:30.053Z,97.30
2023-05-19T00:34:32.237Z,96.97
2023-05-19T00:39:34.373Z,96.34
2023-05-19T00:44:41.441Z,96.43
2023-05-19T00:49:43.557Z,95.83
2023-05-19T00:54:46.417Z,95.93
2023-05-19T00:59:48.949Z,96.63
2023-05-19T01:04:51.803Z,97.14
2023-05-19T01:09:54.178Z,97.39
2023-05-19T01:14:58.715Z,97.34
2023-05-19T01:20:11.068Z,97.45
2023-05-19T01:25:29.781Z,97.46
2023-05-19T01:30:48.653Z,97.57
2023-05-19T01:35:51.850Z,97.45
2023-05-19T01:40:55.990Z,97.30
2023-05-19T01:45:59.002Z,97.12
2023-05-19T01:51:01.463Z,97.16
2023-05-19T01:56:04.154Z,97.37
2023-05-19T02:01:47.496Z,97.74
2023-05-19T02:07:03.614Z,98.00
2023-05-19T02:12:23.335Z,98.28
2023-05-19T02:17:29.406Z,98.28
2023-05-19T02:22:31.893Z,98.42
2023-05-19T02:27:35.105Z,98.59
2023-05-19T02:32:37.703Z,98.63
2023-05-19T02:37:39.985Z,98.59
2023-05-19T02:42:42.072Z,98.52
2023-05-19T02:47:44.257Z,98.42
2023-05-19T02:52:46.418Z,98.46
2023-05-19T02:57:48.509Z,98.35
2023-05-19T03:02:53.085Z,98.45
2023-05-19T03:07:55.255Z,98.70
2023-05-19T03:12:57.357Z,98.83
2023-05-19T03:17:59.493Z,98.93
2023-05-19T03:23:01.612Z,98.81
2023-05-19T03:28:03.932Z,99.03
2023-05-19T03:33:06.234Z,99.03
2023-05-19T03:38:08.410Z,98.72
2023-05-19T03:43:10.745Z,98.59
2023-05-19T03:48:12.968Z,98.31
2023-05-19T03:53:15.065Z,98.23
2023-05-19T03:58:17.202Z,98.05
2023-05-19T04:03:19.472Z,97.57
2023-05-19T04:08:21.703Z,97.11
2023-05-19T04:13:23.940Z,97.16
2023-05-19T04:18:28.785Z,96.80
2023-05-19T04:23:31.752Z,96.63
2023-05-19T04:28:38.562Z,96.68
2023-05-19T04:33:41.104Z,96.34
2023-05-19T04:38:43.497Z,95.76
2023-05-19T04:43:45.783Z,95.53
2023-05-19T04:48:47.870Z,94.50
2023-05-19T04:53:50.027Z,94.43
2023-05-19T04:58:53.752Z,93.06
2023-05-19T05:03:56.161Z,92.73
2023-05-19T05:08:58.589Z,91.80
2023-05-19T05:14:01.109Z,90.83
2023-05-19T05:19:03.861Z,89.93
2023-05-19T05:24:06.544Z,90.49
2023-05-19T05:29:09.856Z,91.31
2023-05-19T05:34:12.050Z,90.04
2023-05-19T05:39:14.197Z,89.27
2023-05-19T05:44:16.287Z,88.25
2023-05-19T05:49:18.731Z,87.95
2023-05-19T05:54:22.438Z,87.29
2023-05-19T05:59:25.059Z,86.91
2023-05-19T06:04:27.237Z,87.47
2023-05-19T06:09:30.386Z,86.45
2023-05-19T06:14:32.574Z,86.19
2023-05-19T06:19:34.694Z,86.36
2023-05-19T06:24:39.459Z,86.04
2023-05-19T06:29:41.867Z,85.65
2023-05-19T06:34:44.014Z,86.07
2023-05-19T06:39:47.295Z,84.67
2023-05-19T06:44:50.303Z,83.09
2023-05-19T06:49:55.573Z,82.52
2023-05-19T06:54:57.920Z,82.54
2023-05-19T07:00:00.093Z,82.29
2023-05-19T07:05:03.183Z,81.00
2023-05-19T07:10:05.944Z,81.75
2023-05-19T07:15:08.353Z,80.10
2023-05-19T07:20:10.859Z,78.96
2023-05-19T07:25:12.946Z,78.86
2023-05-19T07:30:15.104Z,77.22
2023-05-19T07:35:17.264Z,75.57
2023-05-19T07:40:19.523Z,74.29
2023-05-19T07:45:21.844Z,73.77
2023-05-19T07:50:24.102Z,75.25
2023-05-19T07:55:26.379Z,73.78
2023-05-19T08:00:28.543Z,73.48
2023-05-19T08:05:30.814Z,71.73
2023-05-19T08:10:33.226Z,70.63
2023-05-19T08:15:35.810Z,70.68
2023-05-19T08:20:37.976Z,69.40
2023-05-19T08:25:40.721Z,68.23
2023-05-19T08:30:42.907Z,67.06
2023-05-19T08:35:45.088Z,66.70
2023-05-19T08:40:48.428Z,67.39
2023-05-19T08:45:50.656Z,65.34
2023-05-19T08:51:03.310Z,64.80
2023-05-19T08:56:11.283Z,63.35
2023-05-19T09:01:16.914Z,63.15
2023-05-19T09:06:19.688Z,62.86
2023-05-19T09:11:22.752Z,61.36
2023-05-19T09:16:27.650Z,61.02
2023-05-19T09:21:32.203Z,61.16
2023-05-19T09:26:42.287Z,61.39
2023-05-19T09:31:55.989Z,60.93
2023-05-19T09:36:59.829Z,62.18
2023-05-19T09:42:04.966Z,61.81
2023-05-19T09:47:09.779Z,62.87
2023-05-19T09:52:16.292Z,62.92
2023-05-19T09:57:18.560Z,61.57
2023-05-19T10:02:21.831Z,61.69
2023-05-19T10:07:25.293Z,58.50
2023-05-19T10:12:28.088Z,56.05
2023-05-19T10:17:30.928Z,56.15
2023-05-19T10:22:33.797Z,54.49
2023-05-19T10:27:40.629Z,57.08
2023-05-19T10:32:46.744Z,57.65
2023-05-19T10:37:57.640Z,58.50
2023-05-19T10:43:02.850Z,58.85
2023-05-19T10:48:05.220Z,56.08
2023-05-19T10:53:15.085Z,57.69
2023-05-19T10:58:36.412Z,59.24
2023-05-19T11:03:49.130Z,60.01
2023-05-19T11:08:55.545Z,58.33
2023-05-19T11:14:00.425Z,56.83
2023-05-19T11:19:02.618Z,55.08
2023-05-19T11:24:08.886Z,53.80
2023-05-19T11:29:11.882Z,54.56
2023-05-19T11:34:14.574Z,55.40
2023-05-19T11:39:16.993Z,55.52
2023-05-19T11:44:19.129Z,55.58
2023-05-19T11:49:21.332Z,54.21
2023-05-19T11:54:31.611Z,56.59
2023-05-19T11:59:36.482Z,53.84
2023-05-19T12:04:38.666Z,53.65
2023-05-19T12:09:41.322Z,52.33
2023-05-19T12:14:43.864Z,50.01
2023-05-19T12:19:50.185Z,50.60
2023-05-19T12:24:52.791Z,51.51
2023-05-19T12:29:59.576Z,52.84
2023-05-19T12:35:07.080Z,50.72
2023-05-19T12:40:09.959Z,49.83
2023-05-19T12:45:12.480Z,50.58
2023-05-19T12:50:14.732Z,48.55
2023-05-19T12:55:16.884Z,49.22
2023-05-19T13:00:21.128Z,50.32
2023-05-19T13:05:24.001Z,50.66
2023-05-19T13:10:29.706Z,48.90
2023-05-19T13:15:37.997Z,47.05
2023-05-19T13:20:42.248Z,45.49
2023-05-19T13:25:44.401Z,44.75
2023-05-19T13:30:46.662Z,44.90
2023-05-19T13:35:49.250Z,43.53
2023-05-19T13:40:52.799Z,45.25
2023-05-19T13:45:54.934Z,45.37
2023-05-19T13:50:57.870Z,45.34
2023-05-19T13:56:01.228Z,44.92
2023-05-19T14:01:03.437Z,44.18
2023-05-19T14:06:05.633Z,42.80
2023-05-19T14:11:07.872Z,41.71
2023-05-19T14:16:10.299Z,42.44
2023-05-19T14:21:12.510Z,41.35
2023-05-19T14:26:14.653Z,41.90
2023-05-19T14:31:16.967Z,43.01
2023-05-19T14:36:19.162Z,42.97
2023-05-19T14:41:21.884Z,42.65
2023-05-19T14:46:24.053Z,43.23
2023-05-19T14:51:26.203Z,41.91
2023-05-19T14:56:28.328Z,41.76
2023-05-19T15:01:30.918Z,41.62
2023-05-19T15:06:33.134Z,40.77
2023-05-19T15:11:35.866Z,40.78
2023-05-19T15:16:38.048Z,40.94
2023-05-19T15:21:40.215Z,41.68
2023-05-19T15:26:42.424Z,43.53
2023-05-19T15:31:44.640Z,44.97
2023-05-19T15:36:47.500Z,44.33
2023-05-19T15:41:52.672Z,45.99
2023-05-19T15:46:54.858Z,46.53
2023-05-19T15:51:57.026Z,45.77
2023-05-19T15:56:59.194Z,47.48
2023-05-19T16:02:01.594Z,48.71
2023-05-19T16:07:03.895Z,49.76
2023-05-19T16:12:06.490Z,50.05
2023-05-19T16:17:11.568Z,50.33
2023-05-19T16:22:13.798Z,49.97
2023-05-19T16:27:15.959Z,50.47
2023-05-19T16:32:18.133Z,50.99
2023-05-19T16:37:20.431Z,51.44
2023-05-19T16:42:23.194Z,52.63
2023-05-19T16:47:27.803Z,53.47
2023-05-19T16:52:30.686Z,53.25
2023-05-19T16:57:32.872Z,53.55
2023-05-19T17:02:35.130Z,53.47
2023-05-19T17:07:37.455Z,53.94
2023-05-19T17:12:40.035Z,55.46
2023-05-19T17:17:42.215Z,57.13
2023-05-19T17:22:44.354Z,56.81
2023-05-19T17:27:46.460Z,57.81
2023-05-19T17:32:48.667Z,57.65
2023-05-19T17:37:50.939Z,57.11
2023-05-19T17:42:53.099Z,57.34
2023-05-19T17:47:55.304Z,57.73
2023-05-19T17:52:57.647Z,58.24
2023-05-19T17:58:00.182Z,58.74
2023-05-19T18:03:04.609Z,60.05
2023-05-19T18:08:09.380Z,60.96
2023-05-19T18:13:14.641Z,62.00
2023-05-19T18:18:16.825Z,63.40
2023-05-19T18:23:20.407Z,64.41
2023-05-19T18:28:23.859Z,65.37
2023-05-19T18:33:27.883Z,66.71
2023-05-19T18:38:30.742Z,67.29
2023-05-19T18:43:33.173Z,68.46
2023-05-19T18:48:35.354Z,69.65
2023-05-19T18:53:37.579Z,70.18
2023-05-19T18:58:39.727Z,70.59
2023-05-19T19:03:43.660Z,71.86
2023-05-19T19:08:45.868Z,72.77
2023-05-19T19:13:51.198Z,74.01
2023-05-19T19:18:53.705Z,75.33
2023-05-19T19:23:57.055Z,75.66
2023-05-19T19:28:59.245Z,76.89
2023-05-19T19:34:03.923Z,77.23
2023-05-19T19:39:06.193Z,78.01
2023-05-19T19:44:08.466Z,78.46
2023-05-19T19:49:10.839Z,79.15
2023-05-19T19:54:12.972Z,79.54
2023-05-19T19:59:16.109Z,80.04
2023-05-19T20:04:18.387Z,80.43
2023-05-19T20:09:20.944Z,80.88
2023-05-19T20:14:23.058Z,81.42
2023-05-19T20:19:26.557Z,81.78
2023-05-19T20:24:28.813Z,82.38
2023-05-19T20:29:30.930Z,81.84
2023-05-19T20:34:33.162Z,81.24
2023-05-19T20:39:35.420Z,81.39
2023-05-19T20:44:37.644Z,81.67
2023-05-19T20:49:39.810Z,81.25
2023-05-19T20:54:42.320Z,80.74
2023-05-19T20:59:44.491Z,80.52
2023-05-19T21:04:46.698Z,80.55
2023-05-19T21:09:50.537Z,80.78
2023-05-19T21:14:52.640Z,81.21
2023-05-19T21:19:58.305Z,81.73
2023-05-19T21:25:00.565Z,82.14
2023-05-19T21:30:02.843Z,82.50
2023-05-19T21:35:06.208Z,82.38
2023-05-19T21:40:09.784Z,82.44
2023-05-19T21:45:11.959Z,82.62
2023-05-19T21:50:17.401Z,82.79
2023-05-19T21:55:22.274Z,83.00
2023-05-19T22:00:25.694Z,83.06
2023-05-19T22:05:30.343Z,83.16
2023-05-19T22:10:32.772Z,83.56
2023-05-19T22:15:35.194Z,84.53
2023-05-19T22:20:38.273Z,84.62
2023-05-19T22:25:40.390Z,85.14
2023-05-19T22:30:42.782Z,85.64
2023-05-19T22:35:45.000Z,85.90
2023-05-19T22:40:47.212Z,85.99
2023-05-19T22:45:49.475Z,86.00
2023-05-19T22:50:51.753Z,86.07
2023-05-19T22:55:53.930Z,86.35
2023-05-19T23:00:56.217Z,86.64
2023-05-19T23:05:58.594Z,86.54
2023-05-19T23:11:02.251Z,86.57
2023-05-19T23:16:06.652Z,86.81
2023-05-19T23:21:08.785Z,87.17
2023-05-19T23:26:13.298Z,87.51
2023-05-19T23:31:15.583Z,88.08
2023-05-19T23:36:18.232Z,88.33
2023-05-19T23:41:21.087Z,88.78
2023-05-19T23:46:23.349Z,89.13
2023-05-19T23:51:25.741Z,89.39
2023-05-19T23:56:27.905Z,89.84
